»·PEaware :: N6999J KMRY-KSBP

N6999J :: KMRY-KSBP

FLIGHT INFORMATION

Flight Status: Arrived
Operator: Privately registered:
United States
More flights under this callsign
Pilot: Bryan N. (13862)
Aircraft: PIPER PA-28R-201 ARROW
(P28R)
More flights by this aircraft type
Origin: KMRY Monterey Peninsula
United States
Destination: KSBP San Luis Co Regl
United States
More flights between these airports :: More routes between these airports
Route: +MRY5 SNS V25 PRB
File this flight plan on PilotEdge
Remarks: Simulating LIFR conditions
Altitude:
(Current/Filed)
7,000ft
Speed:
(Current/Filed)
135kts
Departed: 21-Jul-20 07:29 PM
Arrived: 21-Jul-20 08:24 PM
Distance/Time
Traveled:
100nm/0:54
Distance/Time
To Go:
Arrived

Flight Plot

Page will automatically refresh every two minutes.

Flight plan parsing failed; only flown route is shown


Map Options




Map Legend


Flown Route
Filed Route
Departure Airport
Arrival Airport
Navaid (VOR, NDB)
Fix

Horizontal Profiles

Position Reports

Time Latitude Longitude Heading Altitude Ground
Speed
21-Jul-20 18:57 36.584809 -121.845898 202 260ft 0kts
21-Jul-20 18:58 36.584809 -121.845898 202 260ft 0kts
21-Jul-20 18:59 36.584809 -121.845898 202 260ft 0kts
21-Jul-20 19:00 36.584809 -121.845898 202 260ft 0kts
21-Jul-20 19:01 36.584809 -121.845898 202 260ft 0kts
21-Jul-20 19:02 36.584809 -121.845898 202 260ft 0kts
21-Jul-20 19:03 36.584809 -121.845898 202 260ft 0kts
21-Jul-20 19:04 36.584809 -121.845898 202 260ft 0kts
21-Jul-20 19:05 36.584809 -121.845898 202 260ft 0kts
21-Jul-20 19:06 36.584809 -121.845898 202 260ft 0kts
21-Jul-20 19:07 36.584809 -121.845898 202 260ft 0kts
21-Jul-20 19:08 36.584809 -121.845898 202 260ft 0kts
21-Jul-20 19:09 36.584807 -121.845898 202 260ft 0kts
21-Jul-20 19:10 36.584803 -121.845900 202 260ft 0kts
21-Jul-20 19:11 36.584800 -121.845902 202 260ft 0kts
21-Jul-20 19:12 36.584798 -121.845903 202 260ft 0kts
21-Jul-20 19:13 36.584796 -121.845904 202 260ft 0kts
21-Jul-20 19:14 36.584794 -121.845905 202 260ft 0kts
21-Jul-20 19:15 36.584791 -121.845906 202 260ft 0kts
21-Jul-20 19:16 36.585547 -121.846267 314 260ft 5kts
21-Jul-20 19:17 36.586010 -121.846129 23 260ft 0kts
21-Jul-20 19:18 36.586926 -121.845722 20 260ft 12kts
21-Jul-20 19:19 36.588252 -121.845104 75 260ft 0kts
21-Jul-20 19:20 36.588252 -121.845100 76 260ft 0kts
21-Jul-20 19:21 36.588253 -121.845097 76 260ft 0kts
21-Jul-20 19:22 36.588254 -121.845093 76 260ft 0kts
21-Jul-20 19:23 36.588254 -121.845090 76 260ft 0kts
21-Jul-20 19:24 36.588256 -121.845082 76 260ft 0kts
21-Jul-20 19:25 36.588257 -121.845079 76 260ft 0kts
21-Jul-20 19:26 36.588257 -121.845076 76 260ft 0kts
21-Jul-20 19:27 36.588327 -121.844938 40 260ft 4kts
21-Jul-20 19:28 36.585762 -121.835646 109 419ft 83kts
21-Jul-20 19:29 36.603195 -121.816513 342 1412ft 108kts
21-Jul-20 19:30 36.633375 -121.826809 347 2387ft 116kts
21-Jul-20 19:31 36.663508 -121.833268 30 3368ft 106kts
21-Jul-20 19:32 36.668112 -121.795648 90 4115ft 116kts
21-Jul-20 19:33 36.667226 -121.755824 91 4955ft 115kts
21-Jul-20 19:34 36.666815 -121.715645 90 5722ft 116kts
21-Jul-20 19:35 36.666225 -121.675391 91 6366ft 117kts
21-Jul-20 19:36 36.665275 -121.635129 93 6963ft 121kts
21-Jul-20 19:37 36.657771 -121.590513 136 7081ft 140kts
21-Jul-20 19:38 36.625031 -121.559821 144 7037ft 150kts
21-Jul-20 19:39 36.591392 -121.527996 144 6990ft 151kts
21-Jul-20 19:40 36.557699 -121.497777 142 6988ft 147kts
21-Jul-20 19:41 36.526051 -121.465838 139 6987ft 146kts
21-Jul-20 19:42 36.494546 -121.433858 141 6985ft 146kts
21-Jul-20 19:43 36.462996 -121.401983 140 6981ft 146kts
21-Jul-20 19:44 36.431021 -121.370408 141 6981ft 146kts
21-Jul-20 19:45 36.398957 -121.338928 141 6978ft 147kts
21-Jul-20 19:46 36.366994 -121.307380 141 6977ft 147kts
21-Jul-20 19:47 36.335011 -121.275699 141 6976ft 147kts
21-Jul-20 19:48 36.302997 -121.243957 141 6974ft 147kts
21-Jul-20 19:49 36.270908 -121.212568 141 6973ft 147kts
21-Jul-20 19:50 36.238534 -121.181399 141 6970ft 147kts
21-Jul-20 19:51 36.206225 -121.150118 141 6969ft 147kts
21-Jul-20 19:52 36.174386 -121.118217 140 6968ft 147kts
21-Jul-20 19:53 36.142570 -121.086149 141 6967ft 147kts
21-Jul-20 19:54 36.110481 -121.054690 141 6966ft 147kts
21-Jul-20 19:55 36.078262 -121.023294 141 6967ft 147kts
21-Jul-20 19:56 36.046010 -120.991675 142 6965ft 148kts
21-Jul-20 19:57 36.013800 -120.959843 140 6967ft 148kts
21-Jul-20 19:58 35.981352 -120.928582 141 6967ft 148kts
21-Jul-20 19:59 35.948841 -120.897313 142 6968ft 148kts
21-Jul-20 20:00 35.916319 -120.865975 142 6969ft 148kts
21-Jul-20 20:01 35.883567 -120.834504 141 6970ft 149kts
21-Jul-20 20:02 35.850856 -120.802647 141 6972ft 149kts
21-Jul-20 20:03 35.818335 -120.770859 140 6975ft 149kts
21-Jul-20 20:04 35.785771 -120.738720 141 6975ft 149kts
21-Jul-20 20:05 35.749829 -120.740298 211 6977ft 142kts
21-Jul-20 20:06 35.715337 -120.766361 211 6695ft 151kts
21-Jul-20 20:07 35.678753 -120.793527 212 6242ft 156kts
21-Jul-20 20:08 35.641623 -120.820365 209 5773ft 155kts
21-Jul-20 20:09 35.603640 -120.848456 212 5323ft 161kts
21-Jul-20 20:10 35.566364 -120.875421 211 5030ft 157kts
21-Jul-20 20:11 35.528399 -120.903288 212 4471ft 159kts
21-Jul-20 20:12 35.488228 -120.921420 156 3897ft 160kts
21-Jul-20 20:13 35.450958 -120.898605 153 3910ft 142kts
21-Jul-20 20:14 35.414248 -120.875092 151 3487ft 149kts
21-Jul-20 20:15 35.377446 -120.851772 151 2983ft 140kts
21-Jul-20 20:16 35.346136 -120.829311 142 2911ft 123kts
21-Jul-20 20:17 35.325835 -120.796634 124 2892ft 118kts
21-Jul-20 20:18 35.308770 -120.766242 123 2758ft 106kts
21-Jul-20 20:19 35.291504 -120.736063 123 2082ft 107kts
21-Jul-20 20:20 35.274768 -120.706543 125 1400ft 102kts
21-Jul-20 20:22 35.258771 -120.678464 125 817ft 99kts
21-Jul-20 20:23 35.243494 -120.651589 126 287ft 90kts
21-Jul-20 20:24 35.237341 -120.640219 44 215ft 8kts
21-Jul-20 20:25 35.238233 -120.639730 231 215ft 0kts
21-Jul-20 20:26 35.238232 -120.639731 231 215ft 0kts

Navigation Log

Ident Type
Flight plan parsing failed, navigation log unavailable